Time;durP1;ratioP1;P1;durP2;ratioP2;P2;SDS_P1;SDS_P2;PMS_P1;PMS_P2;Temp;Humidity;BMP_temperature;BMP_pressure;BME280_temperature;BME280_humidity;BME280_pressure;Samples;Min_cycle;Max_cycle;Signal;HPM_P1;HPM_P2
2022/07/13 00:10:27;;;;;;;2.70;0.60;;;;;;;15.56;57.70;98772.71;448006;1267;95676;-42
2022/07/13 00:20:34;;;;;;;2.60;0.90;;;;;;;15.48;57.94;98774.91;448014;1266;112374;-41
2022/07/13 00:30:42;;;;;;;4.20;2.20;;;;;;;15.34;58.46;98775.41;447984;1266;108838;-41
2022/07/13 00:40:49;;;;;;;3.20;1.90;;;;;;;15.20;58.69;98776.02;447961;1266;108831;-41
2022/07/13 00:50:57;;;;;;;2.80;1.50;;;;;;;15.04;59.26;98771.52;447989;1266;96080;-41
2022/07/13 01:01:04;;;;;;;2.30;1.70;;;;;;;14.89;59.58;98775.13;448023;1266;95847;-41
2022/07/13 01:11:12;;;;;;;2.90;1.10;;;;;;;14.80;60.14;98774.58;447990;1265;112396;-42
2022/07/13 01:21:18;;;;;;;3.30;2.50;;;;;;;14.72;60.54;98763.91;447819;1255;107882;-41
2022/07/13 01:31:34;;;;;;;3.50;1.90;;;;;;;14.62;61.31;98761.42;447756;1265;108660;-41
2022/07/13 01:41:42;;;;;;;4.20;2.00;;;;;;;14.55;62.03;98755.61;447767;1267;96137;-40
2022/07/13 01:51:49;;;;;;;2.50;1.40;;;;;;;14.55;62.66;98752.48;447740;1267;95705;-41
2022/07/13 02:01:55;;;;;;;2.70;0.90;;;;;;;14.54;63.09;98754.17;447751;1267;111962;-42
2022/07/13 02:12:02;;;;;;;2.80;1.10;;;;;;;14.45;63.35;98745.06;447783;1267;108303;-41
2022/07/13 02:22:09;;;;;;;2.90;1.50;;;;;;;14.24;63.84;98745.17;447813;1267;108620;-40
2022/07/13 02:32:17;;;;;;;1.20;1.10;;;;;;;14.10;64.12;98741.41;447745;1267;95651;-41
2022/07/13 02:42:22;;;;;;;4.50;1.10;;;;;;;14.07;64.49;98731.75;447782;1267;95921;-41
2022/07/13 02:52:30;;;;;;;2.80;1.40;;;;;;;14.11;64.99;98725.14;447847;1267;112317;-41
2022/07/13 03:02:37;;;;;;;2.30;1.30;;;;;;;14.16;65.30;98722.31;447799;1265;109276;-41
2022/07/13 03:12:44;;;;;;;1.40;1.30;;;;;;;14.15;65.76;98726.04;447891;1267;109378;-40
2022/07/13 03:22:51;;;;;;;2.90;1.70;;;;;;;14.23;66.01;98725.70;447748;1267;95672;-41
2022/07/13 03:32:59;;;;;;;3.10;2.10;;;;;;;15.13;66.26;98724.64;447756;1267;95735;-41
2022/07/13 03:43:06;;;;;;;3.10;2.50;;;;;;;18.31;64.37;98716.95;447806;1267;112376;-40
2022/07/13 03:53:12;;;;;;;2.60;1.60;;;;;;;20.56;62.21;98718.13;447778;1268;107902;-41
2022/07/13 04:03:19;;;;;;;3.60;1.20;;;;;;;22.32;59.79;98726.86;447822;1267;109093;-42
2022/07/13 04:13:25;;;;;;;;;;;;;;;23.48;58.11;98729.20;447763;1267;95665;-42
2022/07/13 04:23:32;;;;;;;2.20;1.10;;;;;;;24.30;56.21;98731.93;447869;1266;96182;-43
2022/07/13 04:33:38;;;;;;;1.30;1.10;;;;;;;24.78;54.66;98727.42;447802;1268;111221;-41
2022/07/13 04:43:48;;;;;;;4.10;1.40;;;;;;;25.44;53.43;98725.95;447822;1266;107840;-41
2022/07/13 04:53:55;;;;;;;1.40;1.20;;;;;;;25.61;51.98;98721.78;447828;1266;108015;-41
2022/07/13 05:04:03;;;;;;;2.60;1.30;;;;;;;25.77;51.23;98725.77;447881;1267;96010;-43
2022/07/13 05:14:10;;;;;;;4.10;1.30;;;;;;;25.74;50.81;98727.38;447885;1267;95736;-43
2022/07/13 05:24:17;;;;;;;4.30;1.70;;;;;;;25.50;50.04;98730.10;447903;1268;113006;-42
2022/07/13 05:34:25;;;;;;;3.30;2.40;;;;;;;25.16;50.01;98730.29;447836;1267;108754;-42
2022/07/13 05:44:32;;;;;;;4.10;1.10;;;;;;;24.49;50.41;98729.48;447858;1267;108594;-42
2022/07/13 05:54:38;;;;;;;4.80;1.20;;;;;;;24.51;50.28;98728.66;447781;1267;95748;-43
2022/07/13 06:04:50;;;;;;;1.00;1.00;;;;;;;24.52;50.25;98738.31;447842;1267;95956;-41
2022/07/13 06:14:56;;;;;;;;;;;;;;;24.39;50.33;98741.71;447916;1267;112674;-42
2022/07/13 06:25:04;;;;;;;5.40;1.80;;;;;;;24.53;50.03;98731.80;447889;1267;107822;-42
2022/07/13 06:35:12;;;;;;;4.40;1.20;;;;;;;24.56;49.86;98733.64;447811;1267;108021;-41
2022/07/13 06:45:19;;;;;;;4.10;1.10;;;;;;;24.99;49.87;98737.92;447863;1267;96029;-42
2022/07/13 06:55:26;;;;;;;2.30;1.10;;;;;;;25.35;50.19;98747.55;447909;1266;96132;-41
2022/07/13 07:05:33;;;;;;;2.00;1.40;;;;;;;25.66;49.21;98752.48;447775;1266;111126;-42
2022/07/13 07:15:39;;;;;;;3.00;1.20;;;;;;;25.71;48.95;98754.56;447763;1267;107348;-42
2022/07/13 07:25:46;;;;;;;1.40;1.00;;;;;;;25.74;48.39;98754.73;447867;1266;108777;-42
2022/07/13 07:35:54;;;;;;;1.00;1.00;;;;;;;25.62;48.10;98757.20;447766;1267;95701;-42
2022/07/13 07:46:01;;;;;;;2.80;1.30;;;;;;;25.65;48.73;98751.59;447768;1266;96531;-42
2022/07/13 07:56:09;;;;;;;2.00;1.30;;;;;;;25.79;48.58;98752.30;447840;1265;112392;-42
2022/07/13 08:06:16;;;;;;;5.00;1.00;;;;;;;25.65;48.48;98752.12;447743;1267;109717;-42
2022/07/13 08:16:24;;;;;;;4.80;1.20;;;;;;;25.65;48.45;98756.55;447807;1266;108682;-42
2022/07/13 08:28:43;;;;;;;6.60;1.00;;;;;;;25.80;48.42;98762.40;419432;1308;636094;-42
2022/07/13 08:38:50;;;;;;;5.00;0.70;;;;;;;25.88;47.94;98752.75;430189;1276;416199;-43
2022/07/13 08:48:58;;;;;;;3.60;0.90;;;;;;;26.16;47.09;98754.61;430649;1276;107340;-44
2022/07/13 08:59:06;;;;;;;2.80;0.80;;;;;;;25.96;46.00;98762.97;430622;1276;109737;-44
2022/07/13 09:19:53;;;;;;;3.90;0.90;;;;;;;25.55;45.49;98748.05;430797;1276;95688;-45
2022/07/13 09:30:00;;;;;;;2.10;0.80;;;;;;;25.70;45.55;98752.55;433300;1268;95277;-43
2022/07/13 09:40:07;;;;;;;0.60;0.60;;;;;;;25.81;45.05;98750.14;433532;1268;108194;-45
2022/07/13 09:50:15;;;;;;;3.70;1.00;;;;;;;26.06;44.87;98762.19;433444;1268;107689;-42
2022/07/13 10:10:25;;;;;;;1.10;0.60;;;;;;;26.19;43.65;98766.41;433661;1268;96211;-43
2022/07/13 10:20:30;;;;;;;1.60;0.80;;;;;;;26.47;43.74;98776.48;433545;1268;109651;-46
2022/07/13 10:30:39;;;;;;;4.60;0.70;;;;;;;26.85;43.72;98774.09;433357;1268;108951;-41
2022/07/13 10:40:47;;;;;;;5.10;1.00;;;;;;;27.02;43.02;98781.59;433677;1269;109028;-41
2022/07/13 10:50:56;;;;;;;5.40;1.10;;;;;;;26.60;42.69;98772.09;433506;1268;95262;-41
2022/07/13 11:11:31;;;;;;;2.00;1.30;;;;;;;26.44;42.98;98764.11;433524;1268;108873;-41
2022/07/13 11:22:01;;;;;;;3.40;1.40;;;;;;;26.18;43.12;98762.17;433626;1268;95279;-41
2022/07/13 11:32:09;;;;;;;1.50;1.30;;;;;;;26.16;42.94;98759.58;433496;1270;95270;-43
2022/07/13 11:42:22;;;;;;;4.00;0.90;;;;;;;26.42;43.43;98764.28;433372;1271;109658;-40
2022/07/13 11:52:30;;;;;;;0.80;0.80;;;;;;;26.70;42.79;98759.03;433397;1271;108786;-41
2022/07/13 12:02:37;;;;;;;2.00;0.90;;;;;;;27.03;42.22;98746.20;433403;1271;109013;-41
2022/07/13 12:12:45;;;;;;;2.60;1.20;;;;;;;27.50;41.63;98739.47;433379;1269;95352;-42
2022/07/13 12:22:54;;;;;;;1.10;1.00;;;;;;;27.56;40.58;98745.05;433573;1270;110004;-44
2022/07/13 12:33:02;;;;;;;2.30;0.90;;;;;;;27.77;40.16;98743.79;433687;1267;107986;-44
2022/07/13 12:43:17;;;;;;;1.70;0.80;;;;;;;27.80;39.99;98748.78;433622;1268;108712;-42
2022/07/13 12:53:25;;;;;;;1.70;0.80;;;;;;;27.55;39.47;98740.34;433665;1268;95697;-42
2022/07/13 13:03:32;;;;;;;1.30;1.00;;;;;;;27.33;39.79;98719.00;432920;1270;109686;-42
2022/07/13 13:13:40;;;;;;;2.90;1.20;;;;;;;27.70;39.64;98716.92;433523;1268;108978;-42
2022/07/13 13:23:48;;;;;;;2.00;1.20;;;;;;;27.88;39.14;98707.31;433600;1268;109209;-43
2022/07/13 13:33:56;;;;;;;2.50;1.30;;;;;;;27.99;39.37;98699.61;433515;1268;96083;-41
2022/07/13 13:44:22;;;;;;;1.20;1.10;;;;;;;27.98;38.96;98691.50;433771;1268;109739;-40
2022/07/13 13:54:29;;;;;;;2.20;0.90;;;;;;;27.89;38.66;98691.89;433682;1268;108320;-42
2022/07/13 14:04:38;;;;;;;1.50;1.40;;;;;;;28.08;38.79;98693.23;433917;1267;108827;-42
2022/07/13 14:14:45;;;;;;;1.80;1.70;;;;;;;27.97;38.04;98689.34;434134;1267;96126;-43
2022/07/13 14:24:59;;;;;;;4.30;1.30;;;;;;;28.05;38.26;98681.52;433950;1268;108706;-44
2022/07/13 14:35:06;;;;;;;5.70;1.20;;;;;;;27.91;38.46;98677.14;433977;1266;108694;-43
2022/07/13 14:45:12;;;;;;;1.30;1.30;;;;;;;27.81;38.62;98677.04;433493;1271;108285;-44
2022/07/13 14:55:19;;;;;;;1.70;1.40;;;;;;;27.50;38.51;98663.44;433610;1268;95318;-46
2022/07/13 15:05:28;;;;;;;1.40;1.30;;;;;;;27.35;38.80;98658.70;433970;1268;110309;-43
2022/07/13 15:15:34;;;;;;;1.60;1.50;;;;;;;27.26;39.21;98663.05;433874;1268;108236;-43
2022/07/13 15:25:40;;;;;;;2.90;1.90;;;;;;;27.07;39.35;98662.38;433918;1268;110796;-42
2022/07/13 15:35:48;;;;;;;2.80;2.10;;;;;;;27.11;39.59;98654.51;433929;1268;96117;-41
2022/07/13 15:45:56;;;;;;;1.40;1.30;;;;;;;27.24;39.25;98647.02;433502;1268;107065;-45
2022/07/13 15:56:03;;;;;;;4.20;1.30;;;;;;;27.11;39.38;98644.41;433912;1268;109158;-40
2022/07/13 16:06:09;;;;;;;2.00;1.80;;;;;;;26.81;39.70;98632.23;434013;1268;108792;-41
2022/07/13 16:16:16;;;;;;;1.40;1.00;;;;;;;26.54;39.78;98628.84;434009;1267;95775;-45
2022/07/13 16:26:24;;;;;;;1.20;1.00;;;;;;;26.43;40.24;98625.75;434069;1268;109695;-44
2022/07/13 16:36:31;;;;;;;1.60;1.50;;;;;;;26.50;40.74;98626.39;434042;1268;108860;-42
2022/07/13 16:46:38;;;;;;;1.30;1.20;;;;;;;26.65;40.80;98624.10;434006;1268;108576;-45
2022/07/13 16:56:46;;;;;;;1.30;1.00;;;;;;;26.73;41.07;98620.88;433977;1267;95692;-42
2022/07/13 17:06:53;;;;;;;0.90;0.80;;;;;;;26.69;40.44;98615.70;434142;1267;109982;-44
2022/07/13 17:16:59;;;;;;;10.30;1.40;;;;;;;26.52;39.89;98620.95;433377;1271;111021;-42
2022/07/13 17:27:07;;;;;;;3.60;1.30;;;;;;;26.18;39.95;98621.12;433969;1267;108822;-43
2022/07/13 17:37:14;;;;;;;1.40;1.30;;;;;;;25.62;40.15;98623.72;434139;1268;95580;-45
2022/07/13 17:47:22;;;;;;;5.00;2.00;;;;;;;25.15;40.61;98618.14;434090;1268;109744;-43
2022/07/13 17:57:29;;;;;;;3.90;2.00;;;;;;;24.78;41.16;98615.48;434096;1268;107871;-45
2022/07/13 18:17:43;;;;;;;5.90;1.80;;;;;;;24.04;43.34;98606.91;434111;1268;95666;-43
2022/07/13 18:27:50;;;;;;;6.60;3.30;;;;;;;23.76;44.15;98604.46;434124;1268;109689;-40
2022/07/13 18:48:04;;;;;;;4.00;3.20;;;;;;;23.46;44.68;98602.86;434088;1267;108779;-46
2022/07/13 19:08:18;;;;;;;8.60;4.50;;;;;;;23.26;45.09;98612.18;433896;1267;109634;-43
2022/07/13 19:18:25;;;;;;;4.20;3.20;;;;;;;23.09;45.31;98610.50;433945;1267;108815;-43
2022/07/13 19:28:33;;;;;;;7.40;2.80;;;;;;;22.96;45.53;98601.25;434076;1268;108654;-43
2022/07/13 19:38:40;;;;;;;3.80;3.40;;;;;;;22.89;45.57;98604.94;434072;1268;95261;-44
2022/07/13 19:48:47;;;;;;;8.30;7.30;;;;;;;22.73;45.78;98613.75;434029;1268;109689;-43
2022/07/13 19:58:55;;;;;;;5.50;4.00;;;;;;;22.58;46.03;98609.60;434002;1268;108934;-42
2022/07/13 20:09:03;;;;;;;5.30;3.70;;;;;;;22.46;46.17;98611.41;434009;1268;108768;-41
2022/07/13 20:19:08;;;;;;;;;;;;;;;22.41;46.23;98614.06;433939;1268;95565;-45
2022/07/13 20:29:15;;;;;;;6.00;3.80;;;;;;;22.39;46.10;98617.89;433595;1268;109764;-41
2022/07/13 20:39:23;;;;;;;5.60;4.30;;;;;;;22.38;46.06;98618.35;433255;1267;344943;-42
2022/07/13 20:49:31;;;;;;;4.00;3.50;;;;;;;22.33;46.18;98617.03;433577;1268;108921;-43
2022/07/13 20:59:39;;;;;;;4.50;2.50;;;;;;;22.33;46.07;98614.81;433374;1271;96001;-42
2022/07/13 21:09:46;;;;;;;3.70;3.30;;;;;;;22.29;45.93;98610.38;433679;1267;109559;-43
2022/07/13 21:19:53;;;;;;;5.50;3.30;;;;;;;22.25;45.92;98613.93;433636;1268;108637;-45
2022/07/13 21:30:00;;;;;;;4.70;2.20;;;;;;;22.16;45.93;98613.70;433844;1267;106558;-43
2022/07/13 21:40:08;;;;;;;3.10;2.20;;;;;;;22.02;46.09;98621.66;433725;1268;96466;-43
2022/07/13 21:50:15;;;;;;;2.80;2.00;;;;;;;21.83;46.28;98612.02;433803;1268;109807;-42
2022/07/13 22:00:23;;;;;;;3.20;2.50;;;;;;;21.62;46.58;98603.17;433673;1268;109005;-42
2022/07/13 22:11:05;;;;;;;3.40;2.40;;;;;;;21.33;46.87;98612.48;433813;1268;108678;-42
2022/07/13 22:21:48;;;;;;;5.80;2.70;;;;;;;20.97;47.22;98607.57;433994;1267;95682;-41
2022/07/13 22:32:31;;;;;;;5.20;2.00;;;;;;;20.67;47.57;98604.85;434057;1267;109795;-41
2022/07/13 22:43:13;;;;;;;3.80;3.00;;;;;;;20.40;48.02;98596.70;434069;1268;108700;-42
2022/07/13 22:53:54;;;;;;;3.10;2.70;;;;;;;20.01;48.66;98594.10;434094;1268;108261;-41
2022/07/13 23:04:36;;;;;;;3.50;2.20;;;;;;;19.68;49.34;98594.04;434107;1268;96191;-42
2022/07/13 23:15:19;;;;;;;5.90;2.20;;;;;;;19.50;49.64;98584.61;434025;1268;109749;-42
2022/07/13 23:26:01;;;;;;;9.00;2.90;;;;;;;19.35;49.94;98574.45;433924;1267;108864;-44
2022/07/13 23:36:09;;;;;;;6.20;2.70;;;;;;;19.20;50.23;98569.61;434020;1267;108552;-43
2022/07/13 23:46:16;;;;;;;5.80;2.70;;;;;;;19.00;50.80;98561.52;434115;1267;95305;-40
2022/07/13 23:56:23;;;;;;;4.30;3.20;;;;;;;18.79;51.34;98557.75;433900;1268;109819;-42
